Airfield :







YOU CAN JOIN US ON...

 
LOGIN :

Register | Disclaimer

   EN    FR    IT 

 









Legend :    VFR   Marginal VFR   IFR   Intensive IFR   Very Intensive IFR
Visi :
Ceiling :
>= 8 km
>= 3000ft
5 to 8 km
1000 to 3000 ft
1500m to 5 km
500 to 1000 ft
800 to 1500m
200 to 500 ft
< 800m
< 200 ft
Symbols :   Thunderstorms  Fog  Heavy snow  Heavy precipitations  Wind > 20 kt







- Airport Elevation : 167 ft
- IATA code : YAW


CYAW - CFB Shearwater

CURRENT METAR :
  • 242100Z 01009KT 15SM SCT060 BKN250 19/08 A2979 RMK CU4CI2 DA966FT SLP088

EXPIRED METARs :
  • 242000Z 33011G25KT 15SM FEW060 BKN250 20/08 A2977 RMK CU2CI2 DA1024FT SLP082
  • 241900Z 34007G15KT 15SM FEW050 BKN250 21/07 A2976 RMK CU2CI3 DA1173FT SLP077

TAF TAF CYAW
Valid from the 24 at 18:00 until the 25 at 06:00 UTC


241730Z 2418/2506 30010G20KT P6SM SCT050 BKN250
FM242300 30008KT P6SM BKN050
BECMG 2500/2502 VRB03KT RMK NXT FCST BY 250000Z
CZQM FIR / North America



MET'MAP, your aeronautical weather chart ! - Copyright ORBIFLY December 2007 - Disclaimer

ORBIFLY MET'MAP TEAM :

Programming & Development : Alexandra Zaïnal
Concept & Development : Baudouin d'Aumeries
Co-Development & Prog : Marc-Olivier Méhu
Technical & hardware support : Manuel Goepfert

Contact : metmap@orbifly.com




SOURCES & CREDITS :

   NOAA